Time;durP1;ratioP1;P1;durP2;ratioP2;P2;SDS_P1;SDS_P2;PMS_P1;PMS_P2;Temp;Humidity;BMP_temperature;BMP_pressure;BME280_temperature;BME280_humidity;BME280_pressure;Samples;Min_cycle;Max_cycle;Signal;HPM_P1;HPM_P2
2023/07/18 00:01:59;;;;;;;5.60;0.90;;;16.10;88.00;;;;;;5034085;28;20528;-75
2023/07/18 00:04:27;;;;;;;3.83;0.82;;;16.00;88.00;;;;;;5034955;28;20025;-75
2023/07/18 00:06:54;;;;;;;3.05;0.85;;;16.00;88.20;;;;;;5017917;28;20029;-75
2023/07/18 00:09:20;;;;;;;4.80;0.85;;;15.90;88.30;;;;;;5034966;28;20350;-76
2023/07/18 00:11:46;;;;;;;4.40;0.90;;;15.90;88.60;;;;;;5034813;28;20046;-76
2023/07/18 00:14:12;;;;;;;6.15;0.85;;;15.90;88.90;;;;;;5017427;28;20021;-75
2023/07/18 00:16:37;;;;;;;5.97;1.00;;;15.90;89.20;;;;;;5017591;28;20056;-76
2023/07/18 00:19:03;;;;;;;2.58;0.82;;;15.90;89.40;;;;;;5033660;28;20033;-76
2023/07/18 00:21:29;;;;;;;3.65;0.90;;;15.90;89.50;;;;;;5017230;28;20029;-76
2023/07/18 00:23:55;;;;;;;4.03;0.85;;;15.90;89.70;;;;;;5033546;28;20052;-76
2023/07/18 00:26:20;;;;;;;3.78;0.80;;;15.80;89.70;;;;;;5033335;28;20040;-75
2023/07/18 00:28:47;;;;;;;4.30;1.08;;;15.80;89.70;;;;;;5033688;28;20029;-76
2023/07/18 00:31:13;;;;;;;4.20;0.88;;;15.80;89.70;;;;;;5034706;28;20049;-75
2023/07/18 00:33:38;;;;;;;6.15;0.90;;;15.70;89.80;;;;;;5033311;28;20049;-76
2023/07/18 00:36:04;;;;;;;5.68;0.70;;;15.80;90.00;;;;;;5034495;28;20474;-76
2023/07/18 00:38:29;;;;;;;3.80;1.05;;;15.70;90.00;;;;;;5033569;28;20034;-75
2023/07/18 00:40:55;;;;;;;4.47;0.93;;;15.70;90.10;;;;;;5016795;28;20629;-75
2023/07/18 00:43:21;;;;;;;5.53;0.90;;;15.70;90.10;;;;;;5016652;28;20026;-75
2023/07/18 00:45:49;;;;;;;10.25;1.20;;;15.70;90.20;;;;;;5016579;28;20489;-75
2023/07/18 00:48:15;;;;;;;4.15;1.10;;;15.60;90.20;;;;;;5032464;28;20017;-76
2023/07/18 00:50:41;;;;;;;3.53;1.30;;;15.60;90.20;;;;;;5016811;28;20029;-76
2023/07/18 00:53:06;;;;;;;3.33;0.93;;;15.60;90.20;;;;;;5034422;28;20496;-75
2023/07/18 00:55:32;;;;;;;5.00;0.90;;;15.60;90.20;;;;;;5033111;28;20038;-76
2023/07/18 00:57:59;;;;;;;3.03;1.05;;;15.50;90.20;;;;;;5034293;28;20029;-75
2023/07/18 01:00:25;;;;;;;4.38;1.05;;;15.50;90.20;;;;;;5034270;28;20021;-75
2023/07/18 01:02:51;;;;;;;4.43;1.10;;;15.50;90.30;;;;;;5033250;28;20082;-75
2023/07/18 01:05:18;;;;;;;5.18;1.02;;;15.40;90.20;;;;;;5033954;28;20021;-75
2023/07/18 01:07:45;;;;;;;8.55;1.67;;;15.40;90.30;;;;;;5032804;28;20014;-75
2023/07/18 01:10:23;;;;;;;4.90;0.95;;;15.40;90.30;;;;;;5032645;28;20056;-76
2023/07/18 01:13:10;;;;;;;3.33;0.85;;;15.30;90.30;;;;;;5033530;28;20061;-75
2023/07/18 01:15:35;;;;;;;4.50;1.13;;;15.30;90.30;;;;;;5032362;28;20508;-76
2023/07/18 01:18:08;;;;;;;5.07;1.00;;;15.30;90.30;;;;;;5016147;28;20030;-75
2023/07/18 01:20:36;;;;;;;2.47;0.77;;;15.30;90.40;;;;;;5032625;28;20026;-75
2023/07/18 01:23:05;;;;;;;7.10;0.98;;;15.30;90.40;;;;;;5034134;28;20489;-76
2023/07/18 01:25:33;;;;;;;4.72;1.00;;;15.20;90.40;;;;;;5033854;28;20146;-76
2023/07/18 01:27:59;;;;;;;2.85;0.90;;;15.20;90.40;;;;;;5032334;28;20025;-76
2023/07/18 01:30:26;;;;;;;6.20;1.50;;;15.20;90.40;;;;;;5032428;28;20022;-76
2023/07/18 01:32:52;;;;;;;7.47;1.13;;;15.20;90.40;;;;;;5033648;28;20350;-75
2023/07/18 01:35:21;;;;;;;2.22;0.88;;;15.10;90.30;;;;;;5032367;28;20057;-76
2023/07/18 01:37:47;;;;;;;3.55;0.77;;;15.10;90.30;;;;;;5038197;28;20520;-76
2023/07/18 01:40:15;;;;;;;3.33;1.00;;;15.10;90.40;;;;;;5050910;28;20384;-76
2023/07/18 01:42:42;;;;;;;4.43;1.20;;;15.10;90.40;;;;;;5051690;28;20384;-76
2023/07/18 01:45:09;;;;;;;2.70;0.88;;;15.00;90.40;;;;;;5035845;28;20036;-76
2023/07/18 01:47:36;;;;;;;4.07;0.80;;;15.00;90.50;;;;;;5053235;28;20113;-76
2023/07/18 01:50:04;;;;;;;4.55;0.85;;;15.00;90.60;;;;;;5051232;28;20029;-76
2023/07/18 01:52:34;;;;;;;3.17;1.00;;;15.00;90.60;;;;;;5039855;28;20036;-76
2023/07/18 01:55:01;;;;;;;4.60;0.95;;;14.90;90.60;;;;;;5053046;28;20025;-76
2023/07/18 01:57:35;;;;;;;4.43;0.77;;;14.90;90.60;;;;;;5052924;28;20119;-76
2023/07/18 02:00:01;;;;;;;3.50;1.00;;;14.90;90.60;;;;;;5053263;28;20110;-76
2023/07/18 02:02:29;;;;;;;5.10;1.02;;;14.90;90.70;;;;;;5057304;28;20037;-76
2023/07/18 02:04:56;;;;;;;4.82;1.00;;;14.90;90.70;;;;;;5057060;28;20025;-76
2023/07/18 02:07:22;;;;;;;2.83;0.85;;;14.90;91.10;;;;;;5056018;28;20025;-75
2023/07/18 02:09:49;;;;;;;3.17;0.95;;;14.80;90.80;;;;;;5055858;28;20103;-76
2023/07/18 02:12:15;;;;;;;5.78;1.35;;;14.80;90.90;;;;;;5056974;28;20073;-76
2023/07/18 02:14:42;;;;;;;6.55;1.30;;;14.80;91.00;;;;;;5057147;28;20108;-76
2023/07/18 02:17:08;;;;;;;3.60;0.90;;;14.80;91.10;;;;;;5057155;28;20028;-76
2023/07/18 02:19:35;;;;;;;5.20;1.27;;;14.80;91.10;;;;;;5039109;28;20070;-76
2023/07/18 02:22:01;;;;;;;3.28;0.90;;;14.80;91.40;;;;;;5056997;28;20100;-76
2023/07/18 02:24:27;;;;;;;8.32;1.48;;;14.80;91.20;;;;;;5055684;28;20059;-76
2023/07/18 02:26:54;;;;;;;5.88;1.10;;;14.70;91.30;;;;;;5056914;28;20052;-76
2023/07/18 02:29:20;;;;;;;4.40;1.20;;;14.70;91.30;;;;;;5057017;28;20029;-76
2023/07/18 02:31:46;;;;;;;5.18;1.02;;;14.70;91.40;;;;;;5056821;28;20021;-76
2023/07/18 02:34:11;;;;;;;4.95;1.40;;;14.70;91.40;;;;;;5056262;28;20108;-76
2023/07/18 02:36:37;;;;;;;6.18;1.98;;;14.70;91.80;;;;;;5056848;28;20067;-76
2023/07/18 02:39:06;;;;;;;6.85;1.60;;;14.70;91.50;;;;;;5038895;28;20083;-76
2023/07/18 02:41:32;;;;;;;5.50;1.23;;;14.70;91.60;;;;;;5055886;28;20043;-76
2023/07/18 02:43:57;;;;;;;8.10;1.42;;;14.70;91.70;;;;;;5039214;28;20029;-76
2023/07/18 02:46:23;;;;;;;3.85;1.20;;;14.70;91.70;;;;;;5055307;28;20041;-76
2023/07/18 02:48:48;;;;;;;4.88;1.33;;;14.60;91.70;;;;;;5056912;28;20484;-76
2023/07/18 02:51:14;;;;;;;5.50;1.20;;;14.70;91.80;;;;;;5055564;28;20466;-76
2023/07/18 02:53:40;;;;;;;3.42;0.93;;;14.60;91.80;;;;;;5056872;28;20036;-76
2023/07/18 02:56:06;;;;;;;3.72;1.20;;;14.60;91.90;;;;;;5055350;28;20037;-76
2023/07/18 02:58:31;;;;;;;6.03;1.25;;;14.60;91.90;;;;;;5056828;28;20041;-76
2023/07/18 03:00:59;;;;;;;2.83;1.25;;;14.60;91.90;;;;;;5056215;28;20107;-76
2023/07/18 03:03:26;;;;;;;4.97;1.23;;;14.50;91.90;;;;;;5038887;28;20032;-76
2023/07/18 03:05:53;;;;;;;4.53;1.38;;;14.50;91.90;;;;;;5056339;28;20473;-76
2023/07/18 03:08:19;;;;;;;5.85;1.10;;;14.40;92.00;;;;;;5054776;28;20025;-76
2023/07/18 03:10:45;;;;;;;2.90;1.25;;;14.40;92.00;;;;;;5055892;28;20032;-76
2023/07/18 03:13:11;;;;;;;5.28;1.33;;;14.40;92.10;;;;;;5055444;28;20124;-76
2023/07/18 03:15:39;;;;;;;5.40;1.10;;;14.40;92.20;;;;;;5056061;28;20024;-75
2023/07/18 03:18:08;;;;;;;7.05;1.33;;;14.40;92.30;;;;;;5056122;28;20112;-76
2023/07/18 03:20:34;;;;;;;6.25;1.23;;;14.40;92.40;;;;;;5054595;28;20032;-76
2023/07/18 03:23:01;;;;;;;4.75;0.95;;;14.40;92.50;;;;;;5054861;28;20132;-76
2023/07/18 03:25:27;;;;;;;7.65;1.35;;;14.40;92.60;;;;;;5054827;28;20116;-76
2023/07/18 03:27:53;;;;;;;5.43;1.65;;;14.40;92.60;;;;;;5055140;28;20428;-75
2023/07/18 03:30:19;;;;;;;5.20;1.52;;;14.30;92.90;;;;;;5054886;28;20029;-76
2023/07/18 03:32:45;;;;;;;3.95;0.90;;;14.30;92.70;;;;;;5055654;28;20017;-76
2023/07/18 03:35:11;;;;;;;3.28;1.13;;;14.20;92.70;;;;;;5055933;28;20063;-76
2023/07/18 03:37:37;;;;;;;5.65;1.00;;;14.20;92.80;;;;;;5052860;28;20036;-76
2023/07/18 03:40:06;;;;;;;5.60;1.20;;;14.20;92.90;;;;;;5043745;28;20105;-76
2023/07/18 03:42:32;;;;;;;4.90;1.33;;;14.20;92.90;;;;;;5046855;28;20375;-76
2023/07/18 03:44:57;;;;;;;6.70;1.90;;;14.20;93.10;;;;;;5049119;28;20087;-76
2023/07/18 03:47:23;;;;;;;6.38;1.70;;;14.20;93.20;;;;;;5051342;28;20036;-76
2023/07/18 03:49:50;;;;;;;4.50;1.40;;;14.20;93.30;;;;;;5053686;28;20033;-76
2023/07/18 03:52:16;;;;;;;5.68;1.63;;;14.20;93.50;;;;;;5053914;28;20031;-76
2023/07/18 03:54:45;;;;;;;4.78;1.38;;;14.20;93.60;;;;;;5036344;28;20098;-76
2023/07/18 03:57:11;;;;;;;6.20;1.20;;;14.20;93.70;;;;;;5053301;28;20017;-76
2023/07/18 03:59:36;;;;;;;2.15;1.08;;;14.20;94.10;;;;;;5053396;28;20402;-76
2023/07/18 04:02:02;;;;;;;3.28;1.10;;;14.20;93.80;;;;;;5052709;28;20039;-76
2023/07/18 04:04:30;;;;;;;4.20;1.20;;;14.10;93.90;;;;;;5054983;28;20029;-76
2023/07/18 04:06:55;;;;;;;4.25;1.08;;;14.10;94.00;;;;;;5054119;28;20021;-76
2023/07/18 04:09:21;;;;;;;4.82;1.00;;;14.10;94.10;;;;;;5055179;28;20437;-76
2023/07/18 04:11:47;;;;;;;5.53;1.52;;;14.10;94.10;;;;;;5053669;28;20083;-76
2023/07/18 04:14:13;;;;;;;3.58;1.00;;;14.20;94.20;;;;;;5054913;28;20389;-76
2023/07/18 04:16:39;;;;;;;3.83;1.33;;;14.10;94.30;;;;;;5052170;28;20048;-76
2023/07/18 04:19:05;;;;;;;4.68;1.08;;;14.10;94.40;;;;;;5054480;28;20058;-76
2023/07/18 04:21:30;;;;;;;5.15;1.30;;;14.10;94.40;;;;;;5050710;28;20036;-76
2023/07/18 04:23:56;;;;;;;2.90;0.98;;;14.10;94.40;;;;;;5035442;28;20060;-75
2023/07/18 04:26:22;;;;;;;3.92;1.40;;;14.10;94.50;;;;;;5050042;28;20033;-76
2023/07/18 04:28:48;;;;;;;6.22;1.35;;;14.10;94.60;;;;;;5036402;28;20074;-76
2023/07/18 04:31:14;;;;;;;3.53;1.40;;;14.10;94.70;;;;;;5053554;28;20021;-76
2023/07/18 04:33:40;;;;;;;4.35;1.42;;;14.10;94.80;;;;;;5053498;28;20029;-76
2023/07/18 04:36:07;;;;;;;5.53;1.48;;;14.10;94.90;;;;;;5054656;28;20040;-76
2023/07/18 04:38:34;;;;;;;3.65;1.67;;;14.10;95.00;;;;;;5020326;28;20021;-76
2023/07/18 04:41:00;;;;;;;9.55;2.00;;;14.10;95.10;;;;;;5054794;28;20457;-76
2023/07/18 04:43:25;;;;;;;9.85;2.33;;;14.10;95.30;;;;;;5054449;28;20036;-76
2023/07/18 04:45:51;;;;;;;9.27;2.20;;;14.20;95.40;;;;;;5054257;28;20392;-76
2023/07/18 04:48:18;;;;;;;7.15;2.55;;;14.20;95.50;;;;;;5054350;28;20047;-75
2023/07/18 04:50:46;;;;;;;6.50;2.38;;;14.20;95.60;;;;;;5052997;28;20113;-76
2023/07/18 04:53:12;;;;;;;6.13;2.30;;;14.20;95.60;;;;;;5054320;28;20021;-76
2023/07/18 04:55:38;;;;;;;7.07;2.33;;;14.20;95.70;;;;;;5052767;28;20029;-76
2023/07/18 04:58:06;;;;;;;8.70;2.70;;;14.30;95.70;;;;;;5054105;28;20029;-76
2023/07/18 05:00:32;;;;;;;6.35;2.75;;;14.40;95.80;;;;;;5053969;28;20496;-76
2023/07/18 05:02:58;;;;;;;6.35;2.55;;;14.40;95.70;;;;;;5052734;28;20119;-77
2023/07/18 05:05:27;;;;;;;7.72;2.90;;;14.40;95.70;;;;;;5036577;28;20397;-76
2023/07/18 05:08:01;;;;;;;6.78;2.33;;;14.40;95.80;;;;;;5019857;28;20070;-76
2023/07/18 05:10:27;;;;;;;6.05;2.75;;;14.40;95.80;;;;;;5052618;28;20373;-75
2023/07/18 05:12:55;;;;;;;7.82;2.70;;;14.50;95.80;;;;;;5052393;28;20037;-75
2023/07/18 05:15:21;;;;;;;7.75;2.90;;;14.50;95.80;;;;;;5053088;28;20090;-76
2023/07/18 05:17:47;;;;;;;6.32;2.63;;;14.60;95.70;;;;;;5050935;28;20025;-76
2023/07/18 05:20:13;;;;;;;7.38;2.70;;;14.70;95.70;;;;;;5043642;28;20040;-76
2023/07/18 05:22:43;;;;;;;8.32;2.70;;;14.70;95.70;;;;;;5023853;28;20480;-76
2023/07/18 05:25:11;;;;;;;5.88;2.47;;;14.80;95.70;;;;;;5047963;28;20100;-76
2023/07/18 05:27:37;;;;;;;6.35;2.40;;;14.80;95.70;;;;;;5053193;28;20025;-76
2023/07/18 05:30:06;;;;;;;8.13;2.60;;;14.80;95.60;;;;;;5041776;28;20025;-76
2023/07/18 05:32:33;;;;;;;9.40;3.25;;;14.80;95.60;;;;;;5040313;28;20117;-76
2023/07/18 05:34:59;;;;;;;7.28;3.08;;;14.90;95.50;;;;;;5041675;28;20043;-76
2023/07/18 05:37:25;;;;;;;9.60;2.97;;;14.90;95.50;;;;;;5042349;28;20474;-76
2023/07/18 05:39:52;;;;;;;8.95;2.63;;;14.90;95.40;;;;;;5043043;28;20023;-76
2023/07/18 05:42:17;;;;;;;7.20;2.80;;;14.90;95.40;;;;;;5041380;28;20025;-76
2023/07/18 05:44:43;;;;;;;6.28;3.28;;;15.00;95.40;;;;;;5042792;28;20047;-75
2023/07/18 05:47:08;;;;;;;6.90;3.00;;;15.00;95.40;;;;;;5024137;28;20104;-76
2023/07/18 05:49:34;;;;;;;6.47;2.63;;;15.00;95.30;;;;;;5040315;28;20025;-76
2023/07/18 05:52:00;;;;;;;10.18;3.33;;;15.10;95.30;;;;;;5037883;28;20096;-76
2023/07/18 05:54:26;;;;;;;6.18;3.42;;;15.10;95.30;;;;;;5052165;28;20036;-75
2023/07/18 05:56:51;;;;;;;7.80;3.35;;;15.20;95.30;;;;;;5045858;28;20037;-76
2023/07/18 05:59:17;;;;;;;7.93;3.35;;;15.20;95.20;;;;;;5050166;28;20094;-75
2023/07/18 06:01:44;;;;;;;6.15;2.88;;;15.20;95.20;;;;;;5051902;28;20036;-76
2023/07/18 06:04:10;;;;;;;8.77;3.28;;;15.20;95.20;;;;;;5046394;28;20025;-76
2023/07/18 06:06:37;;;;;;;5.65;3.00;;;15.30;95.20;;;;;;5034800;28;20111;-76
2023/07/18 06:09:03;;;;;;;7.95;3.55;;;15.30;95.20;;;;;;5031845;28;20031;-76
2023/07/18 06:11:29;;;;;;;6.88;3.33;;;15.40;95.20;;;;;;5031976;28;20047;-75
2023/07/18 06:13:55;;;;;;;5.00;2.83;;;15.40;95.20;;;;;;5033160;28;20021;-76
2023/07/18 06:16:20;;;;;;;6.40;2.90;;;15.40;95.20;;;;;;5033395;28;20481;-77
2023/07/18 06:18:46;;;;;;;7.00;3.53;;;15.40;95.20;;;;;;5015282;28;20029;-76
2023/07/18 06:21:12;;;;;;;6.07;3.05;;;15.40;95.20;;;;;;5033005;28;20032;-77
2023/07/18 06:23:37;;;;;;;7.93;2.83;;;15.50;95.30;;;;;;5033162;28;20076;-76
2023/07/18 06:26:04;;;;;;;8.80;3.08;;;15.50;95.20;;;;;;5031845;28;20112;-76
2023/07/18 06:28:30;;;;;;;8.40;3.03;;;15.50;95.20;;;;;;5031810;28;20433;-76
2023/07/18 06:30:57;;;;;;;10.18;3.35;;;15.60;95.20;;;;;;5031429;28;20117;-76
2023/07/18 06:33:23;;;;;;;6.55;2.55;;;15.60;95.20;;;;;;5015018;28;20029;-76
2023/07/18 06:35:55;;;;;;;10.65;2.95;;;15.60;95.10;;;;;;5032740;28;20029;-77
2023/07/18 06:38:21;;;;;;;5.47;2.25;;;15.60;95.10;;;;;;5032882;28;20033;-74
2023/07/18 06:40:50;;;;;;;5.45;1.80;;;15.70;95.10;;;;;;5015029;28;20430;-76
2023/07/18 06:43:16;;;;;;;5.50;2.20;;;15.70;95.00;;;;;;5048737;28;20040;-77
2023/07/18 06:45:46;;;;;;;4.82;2.00;;;15.80;94.90;;;;;;5052522;28;20078;-77
2023/07/18 06:48:16;;;;;;;7.43;2.25;;;15.80;94.80;;;;;;5054317;28;20036;-77
2023/07/18 06:50:52;;;;;;;6.38;2.63;;;15.80;94.80;;;;;;5038499;28;20021;-77
2023/07/18 06:53:20;;;;;;;7.85;2.50;;;15.90;94.70;;;;;;5054263;28;20108;-77
2023/07/18 06:55:46;;;;;;;9.95;2.53;;;16.00;94.60;;;;;;5056575;28;20036;-77
2023/07/18 06:58:12;;;;;;;5.88;2.00;;;16.00;94.50;;;;;;5021722;28;20024;-76
2023/07/18 07:00:39;;;;;;;6.15;2.40;;;16.00;94.30;;;;;;5055211;28;20103;-77
2023/07/18 07:03:06;;;;;;;9.45;2.90;;;16.10;94.30;;;;;;5055090;28;20024;-76
2023/07/18 07:05:37;;;;;;;9.63;3.38;;;16.20;94.20;;;;;;5056105;28;20025;-77
2023/07/18 07:08:09;;;;;;;8.00;2.47;;;16.30;94.10;;;;;;5054811;28;20035;-76
2023/07/18 07:10:44;;;;;;;6.75;2.28;;;16.30;93.90;;;;;;5038639;28;20055;-77
2023/07/18 07:13:10;;;;;;;9.55;2.40;;;16.40;93.70;;;;;;5038791;28;20478;-77
2023/07/18 07:15:36;;;;;;;8.73;2.28;;;16.50;93.60;;;;;;5055915;28;20031;-77
2023/07/18 07:18:06;;;;;;;5.55;2.33;;;16.50;93.40;;;;;;5055778;28;20035;-77
2023/07/18 07:20:33;;;;;;;6.18;1.63;;;16.60;93.20;;;;;;5054395;28;20036;-77
2023/07/18 07:22:59;;;;;;;5.85;2.15;;;16.60;93.00;;;;;;5054619;28;20052;-77
2023/07/18 07:25:30;;;;;;;7.30;2.03;;;16.70;92.90;;;;;;5054524;28;20037;-77
2023/07/18 07:27:56;;;;;;;5.22;2.08;;;16.70;92.70;;;;;;5055647;28;20032;-77
2023/07/18 07:30:22;;;;;;;6.90;1.65;;;16.80;92.50;;;;;;5054318;28;20017;-77
2023/07/18 07:32:53;;;;;;;5.15;2.40;;;16.80;92.30;;;;;;5054452;28;20064;-77
2023/07/18 07:35:20;;;;;;;6.20;2.25;;;16.90;92.50;;;;;;5055724;28;20033;-76
2023/07/18 07:37:46;;;;;;;5.75;2.20;;;17.00;92.10;;;;;;5054511;28;20082;-77
2023/07/18 07:40:12;;;;;;;7.00;2.17;;;17.00;91.90;;;;;;5055592;28;20082;-77
2023/07/18 07:42:39;;;;;;;6.20;2.30;;;17.10;91.80;;;;;;5054401;28;20459;-76
2023/07/18 07:45:06;;;;;;;6.18;2.05;;;17.10;91.60;;;;;;5037524;28;20477;-77
2023/07/18 07:47:33;;;;;;;5.68;1.80;;;17.20;91.50;;;;;;5054225;28;20020;-76
2023/07/18 07:49:58;;;;;;;3.70;1.35;;;17.20;91.40;;;;;;5035989;28;20033;-77
2023/07/18 07:52:24;;;;;;;5.75;1.55;;;17.30;91.30;;;;;;5036947;28;20535;-76
2023/07/18 07:54:50;;;;;;;6.35;1.85;;;17.40;91.10;;;;;;5033757;28;20033;-78
2023/07/18 07:57:15;;;;;;;4.85;1.67;;;17.40;90.90;;;;;;5033971;28;20021;-77
2023/07/18 07:59:42;;;;;;;5.38;1.58;;;17.50;90.80;;;;;;5033674;28;20034;-77
2023/07/18 08:02:08;;;;;;;4.15;1.50;;;17.60;90.70;;;;;;5033982;28;20026;-77
2023/07/18 08:04:33;;;;;;;7.22;1.67;;;17.60;90.60;;;;;;5035119;28;20032;-77
2023/07/18 08:06:59;;;;;;;8.50;2.15;;;17.70;90.50;;;;;;5033867;28;20057;-77
2023/07/18 08:09:25;;;;;;;6.28;1.85;;;17.70;90.40;;;;;;5033852;28;20053;-77
2023/07/18 08:11:50;;;;;;;4.50;1.45;;;17.80;90.30;;;;;;5017126;28;20041;-77
2023/07/18 08:14:17;;;;;;;5.70;1.40;;;17.80;90.10;;;;;;5000976;28;20485;-77
2023/07/18 08:16:43;;;;;;;3.40;1.30;;;17.90;90.00;;;;;;5033633;28;20061;-77
2023/07/18 08:19:09;;;;;;;7.85;1.20;;;18.00;90.20;;;;;;5017235;28;20080;-77
2023/07/18 08:21:34;;;;;;;4.03;1.27;;;18.00;89.40;;;;;;5033524;28;20490;-77
2023/07/18 08:24:00;;;;;;;7.45;1.27;;;18.10;89.00;;;;;;5034074;28;20033;-77
2023/07/18 08:26:26;;;;;;;3.17;1.13;;;18.10;88.60;;;;;;5033658;28;20038;-77
2023/07/18 08:28:52;;;;;;;4.78;1.30;;;18.10;88.20;;;;;;5033549;28;20466;-77
2023/07/18 08:31:19;;;;;;;3.80;0.90;;;18.20;87.70;;;;;;5016958;28;20018;-77
2023/07/18 08:33:45;;;;;;;5.45;1.20;;;18.30;87.50;;;;;;5033222;28;20033;-77
2023/07/18 08:36:10;;;;;;;5.28;0.88;;;18.30;87.00;;;;;;5033387;28;20388;-77
2023/07/18 08:38:37;;;;;;;3.42;1.00;;;18.40;86.60;;;;;;5033610;28;20136;-78
2023/07/18 08:41:03;;;;;;;4.30;0.80;;;18.50;86.30;;;;;;5033537;28;20056;-77
2023/07/18 08:43:31;;;;;;;2.75;0.70;;;18.50;85.80;;;;;;5033320;28;20032;-75
2023/07/18 08:45:57;;;;;;;3.15;0.60;;;18.60;85.50;;;;;;5034277;28;20061;-74
2023/07/18 08:48:24;;;;;;;3.40;0.82;;;18.70;84.90;;;;;;5016586;28;20025;-77
2023/07/18 08:50:52;;;;;;;3.78;0.68;;;18.70;84.60;;;;;;5033032;28;20123;-77
2023/07/18 08:53:18;;;;;;;2.00;0.50;;;18.80;84.30;;;;;;5032963;28;20013;-74
2023/07/18 08:55:44;;;;;;;2.08;0.40;;;18.90;84.00;;;;;;5034189;28;20087;-77
2023/07/18 08:58:10;;;;;;;2.05;0.32;;;18.90;83.50;;;;;;5034117;28;20563;-76
2023/07/18 09:00:35;;;;;;;5.00;0.60;;;19.00;82.80;;;;;;5034293;28;20034;-77
2023/07/18 09:03:01;;;;;;;1.85;0.50;;;19.10;82.10;;;;;;5016733;28;20030;-77
2023/07/18 09:05:37;;;;;;;2.38;0.50;;;19.20;81.60;;;;;;5032877;28;20037;-77
2023/07/18 09:08:05;;;;;;;1.38;0.30;;;19.30;81.40;;;;;;5033851;28;20428;-77
2023/07/18 09:10:31;;;;;;;2.83;0.50;;;19.40;81.20;;;;;;5015894;28;20466;-77
2023/07/18 09:13:06;;;;;;;2.92;0.40;;;19.50;80.80;;;;;;5032560;28;20126;-76
2023/07/18 09:15:34;;;;;;;1.70;0.60;;;19.60;80.10;;;;;;5033906;28;20021;-76
2023/07/18 09:18:03;;;;;;;3.10;0.40;;;19.60;79.50;;;;;;5032652;28;20029;-77
2023/07/18 09:20:32;;;;;;;1.90;0.40;;;19.70;78.90;;;;;;5033692;28;20062;-77
2023/07/18 09:22:59;;;;;;;1.40;0.30;;;19.80;78.50;;;;;;5016491;28;20065;-75
2023/07/18 09:25:26;;;;;;;2.88;0.70;;;19.90;78.30;;;;;;5033597;28;20037;-77
2023/07/18 09:27:52;;;;;;;1.58;0.43;;;19.90;77.90;;;;;;5032477;28;20021;-75
2023/07/18 09:30:37;;;;;;;0.80;0.30;;;20.00;77.60;;;;;;5032508;28;20108;-78
2023/07/18 09:33:04;;;;;;;2.60;0.40;;;20.10;77.00;;;;;;5032393;28;20108;-75
2023/07/18 09:35:30;;;;;;;1.10;0.30;;;20.20;76.80;;;;;;5032257;28;20548;-76
2023/07/18 09:37:56;;;;;;;2.50;0.60;;;20.30;76.30;;;;;;5032394;28;20128;-75
2023/07/18 09:40:22;;;;;;;3.60;0.50;;;20.40;75.90;;;;;;5032407;28;20036;-75
2023/07/18 09:42:50;;;;;;;2.28;0.40;;;20.40;75.40;;;;;;5032154;28;20401;-76
2023/07/18 09:45:17;;;;;;;3.05;0.50;;;20.40;74.60;;;;;;5032289;28;20374;-76
2023/07/18 09:47:43;;;;;;;2.85;0.60;;;20.50;74.00;;;;;;5032041;28;20037;-77
2023/07/18 09:50:13;;;;;;;4.15;0.40;;;20.60;73.50;;;;;;5032033;28;20040;-76
2023/07/18 09:52:50;;;;;;;2.30;0.30;;;20.70;73.10;;;;;;5015901;28;20487;-76
2023/07/18 09:55:21;;;;;;;0.80;0.30;;;20.80;72.70;;;;;;5032080;28;20112;-76
2023/07/18 09:57:49;;;;;;;2.08;0.40;;;20.80;72.30;;;;;;5033216;28;20037;-76
2023/07/18 10:00:15;;;;;;;3.08;0.32;;;20.90;72.10;;;;;;5033285;28;20104;-76
2023/07/18 10:02:42;;;;;;;1.80;0.30;;;20.90;71.40;;;;;;4999247;28;20493;-77
2023/07/18 10:05:14;;;;;;;1.60;0.32;;;21.00;71.00;;;;;;5032047;28;20481;-76
2023/07/18 10:07:41;;;;;;;1.33;0.25;;;21.10;70.70;;;;;;5031949;28;20527;-76
2023/07/18 10:10:09;;;;;;;1.70;0.30;;;21.20;70.40;;;;;;5033047;28;20510;-76
2023/07/18 10:12:53;;;;;;;1.17;0.30;;;21.20;69.60;;;;;;5033214;28;20653;-76
2023/07/18 10:15:19;;;;;;;2.08;0.35;;;21.20;69.30;;;;;;5032129;28;20049;-76
2023/07/18 10:17:47;;;;;;;1.92;0.40;;;21.30;69.10;;;;;;5031949;28;20502;-76
2023/07/18 10:20:21;;;;;;;1.20;0.22;;;21.40;68.60;;;;;;5016338;28;20072;-76
2023/07/18 10:22:58;;;;;;;1.67;0.32;;;21.40;68.00;;;;;;5035762;28;20025;-76
2023/07/18 10:25:31;;;;;;;4.22;0.40;;;21.50;67.50;;;;;;5035846;28;20033;-76
2023/07/18 10:27:59;;;;;;;1.27;0.30;;;21.60;67.20;;;;;;5019732;28;20040;-77
2023/07/18 10:30:37;;;;;;;4.82;0.65;;;21.60;66.60;;;;;;5036963;28;20485;-76
2023/07/18 10:33:03;;;;;;;1.52;0.30;;;21.70;66.20;;;;;;5019096;28;20103;-76
2023/07/18 10:35:29;;;;;;;0.90;0.20;;;21.70;66.10;;;;;;5035508;28;20030;-76
2023/07/18 10:38:03;;;;;;;3.83;0.30;;;21.80;66.00;;;;;;5036633;28;20033;-76
2023/07/18 10:40:40;;;;;;;3.03;0.30;;;21.90;65.70;;;;;;5035495;28;20044;-76
2023/07/18 10:43:08;;;;;;;2.05;0.20;;;22.00;65.00;;;;;;5035520;28;20076;-76
2023/07/18 10:45:41;;;;;;;3.30;0.70;;;22.20;64.80;;;;;;5036589;28;20474;-76
2023/07/18 10:48:13;;;;;;;2.47;0.40;;;22.30;64.20;;;;;;5036625;28;20029;-76
2023/07/18 10:50:40;;;;;;;1.05;0.22;;;22.40;64.00;;;;;;5037162;28;20026;-76
2023/07/18 10:53:09;;;;;;;2.13;0.30;;;22.60;63.90;;;;;;5035614;28;20108;-77
2023/07/18 10:55:35;;;;;;;2.75;0.40;;;22.80;63.40;;;;;;5034883;28;20014;-78
2023/07/18 10:58:00;;;;;;;2.50;0.32;;;23.00;62.90;;;;;;5036848;28;20362;-82
2023/07/18 11:00:26;;;;;;;2.78;0.60;;;23.20;62.50;;;;;;5037217;28;20041;-83
2023/07/18 11:02:52;;;;;;;2.25;0.45;;;23.30;62.20;;;;;;5036031;28;20371;-83
2023/07/18 11:05:18;;;;;;;1.90;0.45;;;23.40;62.30;;;;;;5036520;28;20032;-82
2023/07/18 11:07:46;;;;;;;1.40;0.40;;;23.60;62.10;;;;;;5035525;28;20022;-82
2023/07/18 11:10:14;;;;;;;2.78;0.30;;;23.80;61.60;;;;;;5036229;28;20045;-84
2023/07/18 11:12:41;;;;;;;3.15;0.50;;;23.90;61.20;;;;;;5036898;28;20045;-83
2023/07/18 11:15:08;;;;;;;3.78;0.40;;;24.00;60.70;;;;;;5036864;28;20038;-83
2023/07/18 11:17:35;;;;;;;1.65;0.45;;;24.10;60.40;;;;;;5035401;28;20034;-82
2023/07/18 11:20:01;;;;;;;3.22;0.40;;;24.20;60.20;;;;;;5037897;28;20109;-81
2023/07/18 11:22:28;;;;;;;1.95;0.30;;;24.40;60.00;;;;;;5020753;28;20037;-83
2023/07/18 11:24:55;;;;;;;0.90;0.20;;;24.60;59.60;;;;;;5036930;28;20036;-82
2023/07/18 11:27:26;;;;;;;1.17;0.30;;;24.70;59.10;;;;;;5037491;28;20022;-83
2023/07/18 11:29:56;;;;;;;1.73;0.40;;;25.00;58.40;;;;;;5035757;28;20438;-84
2023/07/18 11:32:45;;;;;;;1.75;0.47;;;25.30;58.00;;;;;;5035438;28;20013;-83
2023/07/18 11:35:22;;;;;;;1.80;0.30;;;25.50;57.40;;;;;;5035909;28;20033;-83
2023/07/18 11:37:52;;;;;;;1.23;0.30;;;25.70;57.40;;;;;;5035214;28;20036;-82
2023/07/18 11:40:25;;;;;;;3.30;0.40;;;26.00;57.20;;;;;;5037831;28;20478;-83
2023/07/18 11:42:57;;;;;;;1.73;0.30;;;26.20;56.70;;;;;;5021091;28;20539;-83
2023/07/18 11:45:25;;;;;;;0.77;0.17;;;26.40;56.20;;;;;;5036378;28;20036;-81
2023/07/18 11:47:53;;;;;;;1.73;0.20;;;26.50;55.60;;;;;;5019131;28;20120;-84
2023/07/18 11:50:20;;;;;;;3.45;0.22;;;26.70;55.10;;;;;;5035745;28;20053;-83
2023/07/18 11:52:48;;;;;;;3.47;0.30;;;26.90;54.40;;;;;;5041989;28;20481;-84
2023/07/18 11:55:18;;;;;;;1.73;0.25;;;27.00;53.90;;;;;;5044259;28;20051;-84
2023/07/18 11:57:44;;;;;;;2.88;0.45;;;27.20;53.50;;;;;;5056220;28;20204;-83
2023/07/18 12:00:12;;;;;;;1.38;0.25;;;27.40;53.30;;;;;;5037937;28;20021;-84
2023/07/18 12:02:38;;;;;;;2.72;0.30;;;27.60;52.90;;;;;;5055820;28;20473;-84
2023/07/18 12:05:05;;;;;;;3.00;0.30;;;27.90;52.80;;;;;;5037853;28;20020;-83
2023/07/18 12:07:31;;;;;;;0.95;0.20;;;28.10;52.30;;;;;;5057691;28;20507;-81
2023/07/18 12:09:57;;;;;;;0.82;0.20;;;28.30;51.60;;;;;;5055222;28;20033;-85
2023/07/18 12:12:23;;;;;;;1.13;0.28;;;28.60;51.00;;;;;;5038256;28;20049;-86
2023/07/18 12:14:50;;;;;;;0.88;0.20;;;28.80;50.40;;;;;;5056321;28;20033;-83
2023/07/18 12:17:16;;;;;;;1.25;0.20;;;29.00;49.80;;;;;;5058287;28;20028;-84
2023/07/18 12:19:42;;;;;;;1.10;0.20;;;29.00;49.50;;;;;;5056556;28;20033;-84
2023/07/18 12:22:08;;;;;;;0.82;0.22;;;28.80;49.20;;;;;;5038183;28;20025;-84
2023/07/18 12:24:33;;;;;;;1.30;0.20;;;28.80;49.30;;;;;;5055879;28;20389;-84
2023/07/18 12:26:59;;;;;;;1.55;0.20;;;28.80;49.30;;;;;;5054877;28;20071;-83
2023/07/18 12:29:25;;;;;;;2.67;0.22;;;29.00;49.40;;;;;;5056790;28;20033;-83
2023/07/18 12:31:51;;;;;;;1.27;0.15;;;29.20;49.30;;;;;;5054559;28;20025;-83
2023/07/18 12:34:20;;;;;;;0.82;0.20;;;29.30;49.00;;;;;;5053857;28;20025;-84
2023/07/18 12:36:47;;;;;;;1.15;0.20;;;29.50;48.50;;;;;;5039119;28;20060;-84
2023/07/18 12:39:17;;;;;;;1.33;0.17;;;29.80;48.20;;;;;;5056952;28;20057;-84
2023/07/18 12:41:43;;;;;;;1.00;0.20;;;30.10;47.60;;;;;;5054993;28;20029;-84
2023/07/18 12:44:19;;;;;;;1.35;0.45;;;30.30;47.30;;;;;;5055943;28;20035;-84
2023/07/18 12:46:48;;;;;;;1.10;0.20;;;30.50;46.60;;;;;;5055628;28;20025;-84